sensor_id;sensor_type;location;lat;lon;timestamp;P1;durP1;ratioP1;P2;durP2;ratioP2
49910;SDS011;35803;53.096;5.844;2023-04-03T00:01:08;1.52;;;1.17;;
49910;SDS011;35803;53.096;5.844;2023-04-03T00:03:35;0.90;;;0.90;;
49910;SDS011;35803;53.096;5.844;2023-04-03T00:06:02;1.23;;;1.02;;
49910;SDS011;35803;53.096;5.844;2023-04-03T00:08:28;1.92;;;1.00;;
49910;SDS011;35803;53.096;5.844;2023-04-03T00:10:56;1.77;;;1.10;;
49910;SDS011;35803;53.096;5.844;2023-04-03T00:13:21;0.95;;;0.90;;
49910;SDS011;35803;53.096;5.844;2023-04-03T00:15:48;1.42;;;0.93;;
49910;SDS011;35803;53.096;5.844;2023-04-03T00:18:13;1.30;;;0.90;;
49910;SDS011;35803;53.096;5.844;2023-04-03T00:20:39;1.00;;;0.95;;
49910;SDS011;35803;53.096;5.844;2023-04-03T00:23:04;0.88;;;0.88;;
49910;SDS011;35803;53.096;5.844;2023-04-03T00:25:30;1.55;;;0.85;;
49910;SDS011;35803;53.096;5.844;2023-04-03T00:27:56;1.35;;;0.80;;
49910;SDS011;35803;53.096;5.844;2023-04-03T00:30:21;2.83;;;0.93;;
49910;SDS011;35803;53.096;5.844;2023-04-03T00:32:48;1.65;;;0.75;;
49910;SDS011;35803;53.096;5.844;2023-04-03T00:35:13;1.23;;;0.90;;
49910;SDS011;35803;53.096;5.844;2023-04-03T00:37:41;1.80;;;0.77;;
49910;SDS011;35803;53.096;5.844;2023-04-03T00:40:07;0.70;;;0.70;;
49910;SDS011;35803;53.096;5.844;2023-04-03T00:42:33;0.70;;;0.70;;
49910;SDS011;35803;53.096;5.844;2023-04-03T00:47:26;0.75;;;0.75;;
49910;SDS011;35803;53.096;5.844;2023-04-03T00:49:52;0.80;;;0.80;;
49910;SDS011;35803;53.096;5.844;2023-04-03T00:52:19;2.53;;;1.05;;
49910;SDS011;35803;53.096;5.844;2023-04-03T00:54:47;1.80;;;0.80;;
49910;SDS011;35803;53.096;5.844;2023-04-03T00:57:14;0.80;;;0.80;;
49910;SDS011;35803;53.096;5.844;2023-04-03T00:59:45;0.88;;;0.70;;
49910;SDS011;35803;53.096;5.844;2023-04-03T01:02:13;0.95;;;0.90;;
49910;SDS011;35803;53.096;5.844;2023-04-03T01:04:40;0.80;;;0.80;;
49910;SDS011;35803;53.096;5.844;2023-04-03T01:07:08;0.85;;;0.80;;
49910;SDS011;35803;53.096;5.844;2023-04-03T01:09:36;3.13;;;1.10;;
49910;SDS011;35803;53.096;5.844;2023-04-03T01:12:14;0.77;;;0.77;;
49910;SDS011;35803;53.096;5.844;2023-04-03T01:14:51;2.03;;;0.88;;
49910;SDS011;35803;53.096;5.844;2023-04-03T01:17:45;2.97;;;1.08;;
49910;SDS011;35803;53.096;5.844;2023-04-03T01:28:03;1.38;;;1.10;;
49910;SDS011;35803;53.096;5.844;2023-04-03T01:30:34;0.88;;;0.85;;
49910;SDS011;35803;53.096;5.844;2023-04-03T01:33:12;2.17;;;1.00;;
49910;SDS011;35803;53.096;5.844;2023-04-03T01:35:37;3.17;;;0.90;;
49910;SDS011;35803;53.096;5.844;2023-04-03T01:38:03;2.25;;;0.90;;
49910;SDS011;35803;53.096;5.844;2023-04-03T01:40:28;1.52;;;0.88;;
49910;SDS011;35803;53.096;5.844;2023-04-03T01:42:54;1.30;;;1.02;;
49910;SDS011;35803;53.096;5.844;2023-04-03T01:45:19;1.42;;;1.00;;
49910;SDS011;35803;53.096;5.844;2023-04-03T01:47:45;1.27;;;1.00;;
49910;SDS011;35803;53.096;5.844;2023-04-03T01:50:10;2.85;;;1.27;;
49910;SDS011;35803;53.096;5.844;2023-04-03T01:52:35;1.58;;;0.80;;
49910;SDS011;35803;53.096;5.844;2023-04-03T01:55:01;1.20;;;0.80;;
49910;SDS011;35803;53.096;5.844;2023-04-03T01:57:26;0.80;;;0.80;;
49910;SDS011;35803;53.096;5.844;2023-04-03T01:59:52;2.20;;;1.00;;
49910;SDS011;35803;53.096;5.844;2023-04-03T02:02:17;1.35;;;0.90;;
49910;SDS011;35803;53.096;5.844;2023-04-03T02:04:44;1.50;;;1.25;;
49910;SDS011;35803;53.096;5.844;2023-04-03T02:07:10;2.95;;;0.90;;
49910;SDS011;35803;53.096;5.844;2023-04-03T02:09:35;1.23;;;1.08;;
49910;SDS011;35803;53.096;5.844;2023-04-03T02:12:01;1.65;;;1.15;;
49910;SDS011;35803;53.096;5.844;2023-04-03T02:14:26;0.90;;;0.80;;
49910;SDS011;35803;53.096;5.844;2023-04-03T02:16:52;1.83;;;1.30;;
49910;SDS011;35803;53.096;5.844;2023-04-03T02:19:18;0.93;;;0.80;;
49910;SDS011;35803;53.096;5.844;2023-04-03T02:21:43;2.00;;;1.05;;
49910;SDS011;35803;53.096;5.844;2023-04-03T02:24:09;3.75;;;1.10;;
49910;SDS011;35803;53.096;5.844;2023-04-03T02:26:35;0.82;;;0.80;;
49910;SDS011;35803;53.096;5.844;2023-04-03T02:29:00;1.33;;;1.10;;
49910;SDS011;35803;53.096;5.844;2023-04-03T02:31:26;1.65;;;1.10;;
49910;SDS011;35803;53.096;5.844;2023-04-03T02:33:51;1.80;;;1.00;;
49910;SDS011;35803;53.096;5.844;2023-04-03T02:36:16;2.30;;;1.20;;
49910;SDS011;35803;53.096;5.844;2023-04-03T02:38:42;3.72;;;1.30;;
49910;SDS011;35803;53.096;5.844;2023-04-03T02:41:09;1.80;;;1.00;;
49910;SDS011;35803;53.096;5.844;2023-04-03T02:43:35;2.20;;;1.08;;
49910;SDS011;35803;53.096;5.844;2023-04-03T02:46:01;1.02;;;0.93;;
49910;SDS011;35803;53.096;5.844;2023-04-03T02:48:26;1.30;;;1.20;;
49910;SDS011;35803;53.096;5.844;2023-04-03T02:50:52;1.70;;;1.30;;
49910;SDS011;35803;53.096;5.844;2023-04-03T02:53:18;1.80;;;1.30;;
49910;SDS011;35803;53.096;5.844;2023-04-03T02:55:44;1.38;;;1.15;;
49910;SDS011;35803;53.096;5.844;2023-04-03T02:58:10;2.95;;;1.20;;
49910;SDS011;35803;53.096;5.844;2023-04-03T03:00:36;0.93;;;0.93;;
49910;SDS011;35803;53.096;5.844;2023-04-03T03:03:02;1.10;;;1.00;;
49910;SDS011;35803;53.096;5.844;2023-04-03T03:05:27;1.90;;;1.05;;
49910;SDS011;35803;53.096;5.844;2023-04-03T03:07:53;2.00;;;1.10;;
49910;SDS011;35803;53.096;5.844;2023-04-03T03:10:19;2.15;;;1.23;;
49910;SDS011;35803;53.096;5.844;2023-04-03T03:12:45;2.15;;;1.15;;
49910;SDS011;35803;53.096;5.844;2023-04-03T03:15:11;3.78;;;1.30;;
49910;SDS011;35803;53.096;5.844;2023-04-03T03:17:37;1.05;;;0.88;;
49910;SDS011;35803;53.096;5.844;2023-04-03T03:20:03;3.55;;;1.40;;
49910;SDS011;35803;53.096;5.844;2023-04-03T03:22:29;1.20;;;1.02;;
49910;SDS011;35803;53.096;5.844;2023-04-03T03:24:55;3.72;;;1.20;;
49910;SDS011;35803;53.096;5.844;2023-04-03T03:27:20;1.25;;;1.15;;
49910;SDS011;35803;53.096;5.844;2023-04-03T03:29:46;2.63;;;1.15;;
49910;SDS011;35803;53.096;5.844;2023-04-03T03:32:12;2.80;;;1.20;;
49910;SDS011;35803;53.096;5.844;2023-04-03T03:34:37;2.65;;;1.20;;
49910;SDS011;35803;53.096;5.844;2023-04-03T03:37:03;1.30;;;1.20;;
49910;SDS011;35803;53.096;5.844;2023-04-03T03:39:29;3.83;;;1.27;;
49910;SDS011;35803;53.096;5.844;2023-04-03T03:41:54;1.92;;;1.05;;
49910;SDS011;35803;53.096;5.844;2023-04-03T03:44:20;2.35;;;1.30;;
49910;SDS011;35803;53.096;5.844;2023-04-03T03:46:46;2.55;;;1.30;;
49910;SDS011;35803;53.096;5.844;2023-04-03T03:49:11;1.27;;;1.15;;
49910;SDS011;35803;53.096;5.844;2023-04-03T03:51:37;4.32;;;1.13;;
49910;SDS011;35803;53.096;5.844;2023-04-03T03:54:04;2.63;;;1.17;;
49910;SDS011;35803;53.096;5.844;2023-04-03T03:56:30;2.85;;;1.15;;
49910;SDS011;35803;53.096;5.844;2023-04-03T03:58:55;3.13;;;1.48;;
49910;SDS011;35803;53.096;5.844;2023-04-03T04:01:21;2.10;;;1.20;;
49910;SDS011;35803;53.096;5.844;2023-04-03T04:03:47;2.25;;;1.35;;
49910;SDS011;35803;53.096;5.844;2023-04-03T04:06:13;3.03;;;1.40;;
49910;SDS011;35803;53.096;5.844;2023-04-03T04:08:38;2.95;;;1.20;;
49910;SDS011;35803;53.096;5.844;2023-04-03T04:11:04;3.10;;;1.25;;
49910;SDS011;35803;53.096;5.844;2023-04-03T04:13:29;1.63;;;1.10;;
49910;SDS011;35803;53.096;5.844;2023-04-03T04:15:55;3.03;;;1.30;;
49910;SDS011;35803;53.096;5.844;2023-04-03T04:18:20;2.75;;;1.20;;
49910;SDS011;35803;53.096;5.844;2023-04-03T04:20:47;1.33;;;1.10;;
49910;SDS011;35803;53.096;5.844;2023-04-03T04:23:13;3.53;;;1.75;;
49910;SDS011;35803;53.096;5.844;2023-04-03T04:25:39;3.63;;;1.40;;
49910;SDS011;35803;53.096;5.844;2023-04-03T04:28:05;2.20;;;1.48;;
49910;SDS011;35803;53.096;5.844;2023-04-03T04:30:31;1.05;;;0.98;;
49910;SDS011;35803;53.096;5.844;2023-04-03T04:32:56;5.80;;;1.88;;
49910;SDS011;35803;53.096;5.844;2023-04-03T04:35:22;1.65;;;1.17;;
49910;SDS011;35803;53.096;5.844;2023-04-03T04:37:47;2.88;;;1.40;;
49910;SDS011;35803;53.096;5.844;2023-04-03T04:40:13;3.42;;;1.30;;
49910;SDS011;35803;53.096;5.844;2023-04-03T04:42:38;4.97;;;1.45;;
49910;SDS011;35803;53.096;5.844;2023-04-03T04:45:04;3.88;;;1.52;;
49910;SDS011;35803;53.096;5.844;2023-04-03T04:47:30;3.25;;;1.20;;
49910;SDS011;35803;53.096;5.844;2023-04-03T04:50:03;2.05;;;1.30;;
49910;SDS011;35803;53.096;5.844;2023-04-03T04:52:29;2.35;;;1.40;;
49910;SDS011;35803;53.096;5.844;2023-04-03T04:54:54;2.13;;;1.23;;
49910;SDS011;35803;53.096;5.844;2023-04-03T04:57:20;1.88;;;1.33;;
49910;SDS011;35803;53.096;5.844;2023-04-03T04:59:45;3.15;;;1.30;;
49910;SDS011;35803;53.096;5.844;2023-04-03T05:02:10;1.95;;;1.30;;
49910;SDS011;35803;53.096;5.844;2023-04-03T05:04:36;3.90;;;1.65;;
49910;SDS011;35803;53.096;5.844;2023-04-03T05:07:01;2.38;;;1.40;;
49910;SDS011;35803;53.096;5.844;2023-04-03T05:09:27;4.85;;;1.60;;
49910;SDS011;35803;53.096;5.844;2023-04-03T05:11:52;2.40;;;1.58;;
49910;SDS011;35803;53.096;5.844;2023-04-03T05:14:18;4.78;;;1.58;;
49910;SDS011;35803;53.096;5.844;2023-04-03T05:16:43;2.40;;;1.58;;
49910;SDS011;35803;53.096;5.844;2023-04-03T05:19:09;1.55;;;1.33;;
49910;SDS011;35803;53.096;5.844;2023-04-03T05:21:34;4.30;;;1.50;;
49910;SDS011;35803;53.096;5.844;2023-04-03T05:24:00;3.63;;;1.73;;
49910;SDS011;35803;53.096;5.844;2023-04-03T05:26:28;1.75;;;1.45;;
49910;SDS011;35803;53.096;5.844;2023-04-03T05:28:55;3.13;;;1.52;;
49910;SDS011;35803;53.096;5.844;2023-04-03T05:31:20;1.98;;;1.45;;
49910;SDS011;35803;53.096;5.844;2023-04-03T05:33:46;2.05;;;1.50;;
49910;SDS011;35803;53.096;5.844;2023-04-03T05:36:12;4.10;;;1.70;;
49910;SDS011;35803;53.096;5.844;2023-04-03T05:38:38;2.42;;;1.58;;
49910;SDS011;35803;53.096;5.844;2023-04-03T05:41:05;1.92;;;1.55;;
49910;SDS011;35803;53.096;5.844;2023-04-03T05:43:31;3.03;;;1.63;;
49910;SDS011;35803;53.096;5.844;2023-04-03T05:45:56;5.65;;;1.67;;
49910;SDS011;35803;53.096;5.844;2023-04-03T05:48:22;3.33;;;1.63;;
49910;SDS011;35803;53.096;5.844;2023-04-03T05:50:48;3.50;;;1.65;;
49910;SDS011;35803;53.096;5.844;2023-04-03T05:53:17;1.75;;;1.50;;
49910;SDS011;35803;53.096;5.844;2023-04-03T05:55:45;5.57;;;1.70;;
49910;SDS011;35803;53.096;5.844;2023-04-03T05:58:11;2.70;;;1.35;;
49910;SDS011;35803;53.096;5.844;2023-04-03T06:00:37;2.10;;;1.50;;
49910;SDS011;35803;53.096;5.844;2023-04-03T06:03:03;4.03;;;1.83;;
49910;SDS011;35803;53.096;5.844;2023-04-03T06:05:28;4.60;;;1.90;;
49910;SDS011;35803;53.096;5.844;2023-04-03T06:07:54;3.28;;;1.60;;
49910;SDS011;35803;53.096;5.844;2023-04-03T06:10:19;2.88;;;1.63;;
49910;SDS011;35803;53.096;5.844;2023-04-03T06:12:45;4.32;;;1.70;;
49910;SDS011;35803;53.096;5.844;2023-04-03T06:15:10;3.97;;;1.73;;
49910;SDS011;35803;53.096;5.844;2023-04-03T06:17:37;1.67;;;1.58;;
49910;SDS011;35803;53.096;5.844;2023-04-03T06:20:02;4.40;;;2.05;;
49910;SDS011;35803;53.096;5.844;2023-04-03T06:22:29;4.20;;;1.80;;
49910;SDS011;35803;53.096;5.844;2023-04-03T06:24:55;2.15;;;1.42;;
49910;SDS011;35803;53.096;5.844;2023-04-03T06:27:21;2.15;;;1.48;;
49910;SDS011;35803;53.096;5.844;2023-04-03T06:29:47;1.60;;;1.50;;
49910;SDS011;35803;53.096;5.844;2023-04-03T06:32:14;4.55;;;1.85;;
49910;SDS011;35803;53.096;5.844;2023-04-03T06:34:40;2.70;;;1.90;;
49910;SDS011;35803;53.096;5.844;2023-04-03T06:37:09;3.55;;;1.63;;
49910;SDS011;35803;53.096;5.844;2023-04-03T06:39:37;3.58;;;1.83;;
49910;SDS011;35803;53.096;5.844;2023-04-03T06:42:03;3.17;;;1.80;;
49910;SDS011;35803;53.096;5.844;2023-04-03T06:44:28;8.02;;;2.30;;
49910;SDS011;35803;53.096;5.844;2023-04-03T06:46:54;4.95;;;2.13;;
49910;SDS011;35803;53.096;5.844;2023-04-03T06:49:20;5.72;;;2.03;;
49910;SDS011;35803;53.096;5.844;2023-04-03T06:51:45;4.35;;;1.70;;
49910;SDS011;35803;53.096;5.844;2023-04-03T06:54:13;4.38;;;1.70;;
49910;SDS011;35803;53.096;5.844;2023-04-03T06:56:40;4.55;;;1.77;;
49910;SDS011;35803;53.096;5.844;2023-04-03T06:59:05;4.32;;;1.92;;
49910;SDS011;35803;53.096;5.844;2023-04-03T07:01:33;4.72;;;1.55;;
49910;SDS011;35803;53.096;5.844;2023-04-03T07:03:59;5.10;;;1.73;;
49910;SDS011;35803;53.096;5.844;2023-04-03T07:06:24;3.92;;;1.75;;
49910;SDS011;35803;53.096;5.844;2023-04-03T07:08:53;3.30;;;1.75;;
49910;SDS011;35803;53.096;5.844;2023-04-03T07:11:19;4.90;;;1.80;;
49910;SDS011;35803;53.096;5.844;2023-04-03T07:13:45;3.63;;;1.75;;
49910;SDS011;35803;53.096;5.844;2023-04-03T07:16:11;2.35;;;1.50;;
49910;SDS011;35803;53.096;5.844;2023-04-03T07:18:36;4.32;;;1.70;;
49910;SDS011;35803;53.096;5.844;2023-04-03T07:21:02;6.68;;;1.88;;
49910;SDS011;35803;53.096;5.844;2023-04-03T07:23:28;3.38;;;1.92;;
49910;SDS011;35803;53.096;5.844;2023-04-03T07:25:54;1.52;;;1.40;;
49910;SDS011;35803;53.096;5.844;2023-04-03T07:28:20;2.47;;;1.52;;
49910;SDS011;35803;53.096;5.844;2023-04-03T07:30:49;2.65;;;1.55;;
49910;SDS011;35803;53.096;5.844;2023-04-03T07:33:16;2.85;;;1.40;;
49910;SDS011;35803;53.096;5.844;2023-04-03T07:35:43;3.22;;;1.20;;
49910;SDS011;35803;53.096;5.844;2023-04-03T07:38:09;1.88;;;1.30;;
49910;SDS011;35803;53.096;5.844;2023-04-03T07:40:35;3.50;;;1.70;;
49910;SDS011;35803;53.096;5.844;2023-04-03T07:43:01;2.60;;;1.80;;
49910;SDS011;35803;53.096;5.844;2023-04-03T07:45:30;3.78;;;1.58;;
49910;SDS011;35803;53.096;5.844;2023-04-03T07:48:06;1.60;;;1.50;;
49910;SDS011;35803;53.096;5.844;2023-04-03T07:50:32;5.60;;;1.60;;
49910;SDS011;35803;53.096;5.844;2023-04-03T07:52:57;3.72;;;1.60;;
49910;SDS011;35803;53.096;5.844;2023-04-03T07:55:31;4.47;;;1.50;;
49910;SDS011;35803;53.096;5.844;2023-04-03T07:57:57;2.60;;;1.90;;
49910;SDS011;35803;53.096;5.844;2023-04-03T08:00:23;2.25;;;1.50;;
49910;SDS011;35803;53.096;5.844;2023-04-03T08:02:49;2.72;;;1.70;;
49910;SDS011;35803;53.096;5.844;2023-04-03T08:05:20;1.83;;;1.20;;
49910;SDS011;35803;53.096;5.844;2023-04-03T08:07:48;2.80;;;1.40;;
49910;SDS011;35803;53.096;5.844;2023-04-03T08:10:37;4.90;;;1.52;;
49910;SDS011;35803;53.096;5.844;2023-04-03T08:13:02;3.80;;;1.55;;
49910;SDS011;35803;53.096;5.844;2023-04-03T08:15:29;3.72;;;1.58;;
49910;SDS011;35803;53.096;5.844;2023-04-03T08:17:55;1.83;;;1.35;;
49910;SDS011;35803;53.096;5.844;2023-04-03T08:20:21;4.63;;;1.60;;
49910;SDS011;35803;53.096;5.844;2023-04-03T08:22:46;2.47;;;1.15;;
49910;SDS011;35803;53.096;5.844;2023-04-03T08:25:12;2.53;;;1.40;;
49910;SDS011;35803;53.096;5.844;2023-04-03T08:27:38;3.63;;;1.58;;
49910;SDS011;35803;53.096;5.844;2023-04-03T08:30:03;2.22;;;1.65;;
49910;SDS011;35803;53.096;5.844;2023-04-03T08:32:29;3.85;;;1.42;;
49910;SDS011;35803;53.096;5.844;2023-04-03T08:34:55;2.58;;;1.40;;
49910;SDS011;35803;53.096;5.844;2023-04-03T08:37:21;1.60;;;1.05;;
49910;SDS011;35803;53.096;5.844;2023-04-03T08:39:46;3.22;;;1.38;;
49910;SDS011;35803;53.096;5.844;2023-04-03T08:45:09;1.83;;;1.55;;
49910;SDS011;35803;53.096;5.844;2023-04-03T08:47:38;3.70;;;1.73;;
49910;SDS011;35803;53.096;5.844;2023-04-03T08:50:10;2.22;;;1.17;;
49910;SDS011;35803;53.096;5.844;2023-04-03T08:52:39;3.42;;;1.38;;
49910;SDS011;35803;53.096;5.844;2023-04-03T08:55:06;2.95;;;1.60;;
49910;SDS011;35803;53.096;5.844;2023-04-03T08:57:45;1.70;;;1.60;;
49910;SDS011;35803;53.096;5.844;2023-04-03T09:02:43;2.67;;;1.70;;
49910;SDS011;35803;53.096;5.844;2023-04-03T09:05:15;2.80;;;1.23;;
49910;SDS011;35803;53.096;5.844;2023-04-03T09:07:46;1.77;;;1.10;;
49910;SDS011;35803;53.096;5.844;2023-04-03T09:10:14;5.65;;;1.52;;
49910;SDS011;35803;53.096;5.844;2023-04-03T09:12:42;4.22;;;1.30;;
49910;SDS011;35803;53.096;5.844;2023-04-03T09:15:23;1.30;;;1.00;;
49910;SDS011;35803;53.096;5.844;2023-04-03T09:17:56;3.63;;;1.48;;
49910;SDS011;35803;53.096;5.844;2023-04-03T09:25:53;1.40;;;1.30;;
49910;SDS011;35803;53.096;5.844;2023-04-03T09:28:23;2.38;;;1.10;;
49910;SDS011;35803;53.096;5.844;2023-04-03T09:30:49;1.33;;;1.08;;
49910;SDS011;35803;53.096;5.844;2023-04-03T09:33:14;3.70;;;0.98;;
49910;SDS011;35803;53.096;5.844;2023-04-03T09:35:41;1.73;;;1.02;;
49910;SDS011;35803;53.096;5.844;2023-04-03T09:40:39;1.17;;;1.08;;
49910;SDS011;35803;53.096;5.844;2023-04-03T09:43:30;3.60;;;1.23;;
49910;SDS011;35803;53.096;5.844;2023-04-03T09:45:56;1.98;;;0.90;;
49910;SDS011;35803;53.096;5.844;2023-04-03T09:48:49;0.98;;;0.80;;
49910;SDS011;35803;53.096;5.844;2023-04-03T09:51:16;0.60;;;0.60;;
49910;SDS011;35803;53.096;5.844;2023-04-03T09:53:42;1.15;;;0.80;;
49910;SDS011;35803;53.096;5.844;2023-04-03T09:58:41;0.88;;;0.80;;
49910;SDS011;35803;53.096;5.844;2023-04-03T10:01:28;1.98;;;0.85;;
49910;SDS011;35803;53.096;5.844;2023-04-03T10:04:12;1.52;;;0.90;;
49910;SDS011;35803;53.096;5.844;2023-04-03T10:09:31;0.98;;;0.85;;
49910;SDS011;35803;53.096;5.844;2023-04-03T10:14:39;3.08;;;0.77;;
49910;SDS011;35803;53.096;5.844;2023-04-03T10:20:17;1.27;;;0.80;;
49910;SDS011;35803;53.096;5.844;2023-04-03T10:34:21;1.25;;;0.70;;
49910;SDS011;35803;53.096;5.844;2023-04-03T10:39:50;1.08;;;0.73;;
49910;SDS011;35803;53.096;5.844;2023-04-03T10:42:20;1.20;;;1.10;;
49910;SDS011;35803;53.096;5.844;2023-04-03T10:56:03;0.70;;;0.70;;
49910;SDS011;35803;53.096;5.844;2023-04-03T10:58:48;0.75;;;0.65;;
49910;SDS011;35803;53.096;5.844;2023-04-03T11:01:21;1.40;;;1.02;;
49910;SDS011;35803;53.096;5.844;2023-04-03T11:04:00;0.68;;;0.68;;
49910;SDS011;35803;53.096;5.844;2023-04-03T11:06:30;1.95;;;1.00;;
49910;SDS011;35803;53.096;5.844;2023-04-03T11:09:00;1.77;;;0.70;;
49910;SDS011;35803;53.096;5.844;2023-04-03T11:11:37;1.15;;;0.85;;
49910;SDS011;35803;53.096;5.844;2023-04-03T11:14:09;0.98;;;0.68;;
49910;SDS011;35803;53.096;5.844;2023-04-03T11:16:48;1.80;;;0.73;;
49910;SDS011;35803;53.096;5.844;2023-04-03T11:19:25;2.60;;;0.95;;
49910;SDS011;35803;53.096;5.844;2023-04-03T11:21:58;1.17;;;0.70;;
49910;SDS011;35803;53.096;5.844;2023-04-03T11:24:46;1.05;;;0.68;;
49910;SDS011;35803;53.096;5.844;2023-04-03T11:31:07;1.10;;;0.88;;
49910;SDS011;35803;53.096;5.844;2023-04-03T11:36:30;1.90;;;0.77;;
49910;SDS011;35803;53.096;5.844;2023-04-03T11:38:59;0.90;;;0.60;;
49910;SDS011;35803;53.096;5.844;2023-04-03T11:41:28;0.52;;;0.50;;
49910;SDS011;35803;53.096;5.844;2023-04-03T11:44:00;1.23;;;0.73;;
49910;SDS011;35803;53.096;5.844;2023-04-03T12:26:41;0.85;;;0.70;;
49910;SDS011;35803;53.096;5.844;2023-04-03T12:29:12;1.17;;;0.70;;
49910;SDS011;35803;53.096;5.844;2023-04-03T12:32:09;1.40;;;0.80;;
49910;SDS011;35803;53.096;5.844;2023-04-03T12:35:24;0.50;;;0.47;;
49910;SDS011;35803;53.096;5.844;2023-04-03T12:48:34;0.90;;;0.85;;
49910;SDS011;35803;53.096;5.844;2023-04-03T12:51:03;2.38;;;1.02;;
49910;SDS011;35803;53.096;5.844;2023-04-03T12:53:33;1.00;;;0.73;;
49910;SDS011;35803;53.096;5.844;2023-04-03T12:58:49;3.50;;;0.80;;
49910;SDS011;35803;53.096;5.844;2023-04-03T13:01:16;1.20;;;0.70;;
49910;SDS011;35803;53.096;5.844;2023-04-03T13:03:44;1.23;;;0.90;;
49910;SDS011;35803;53.096;5.844;2023-04-03T13:06:14;2.05;;;0.93;;
49910;SDS011;35803;53.096;5.844;2023-04-03T13:08:50;1.45;;;0.88;;
49910;SDS011;35803;53.096;5.844;2023-04-03T13:11:24;2.17;;;0.80;;
49910;SDS011;35803;53.096;5.844;2023-04-03T13:13:58;1.13;;;0.93;;
49910;SDS011;35803;53.096;5.844;2023-04-03T13:16:25;2.10;;;1.00;;
49910;SDS011;35803;53.096;5.844;2023-04-03T13:18:52;1.10;;;0.80;;
49910;SDS011;35803;53.096;5.844;2023-04-03T13:21:19;1.50;;;0.80;;
49910;SDS011;35803;53.096;5.844;2023-04-03T13:23:50;1.65;;;1.20;;
49910;SDS011;35803;53.096;5.844;2023-04-03T13:26:18;1.10;;;0.80;;
49910;SDS011;35803;53.096;5.844;2023-04-03T13:28:45;1.95;;;0.98;;
49910;SDS011;35803;53.096;5.844;2023-04-03T13:33:40;2.97;;;0.90;;
49910;SDS011;35803;53.096;5.844;2023-04-03T13:36:21;1.35;;;0.88;;
49910;SDS011;35803;53.096;5.844;2023-04-03T13:39:02;1.20;;;1.10;;
49910;SDS011;35803;53.096;5.844;2023-04-03T13:41:50;2.30;;;1.67;;
49910;SDS011;35803;53.096;5.844;2023-04-03T13:44:27;2.38;;;2.17;;
49910;SDS011;35803;53.096;5.844;2023-04-03T13:46:59;3.97;;;2.90;;
49910;SDS011;35803;53.096;5.844;2023-04-03T13:49:59;0.93;;;0.80;;
49910;SDS011;35803;53.096;5.844;2023-04-03T13:52:28;1.15;;;1.00;;
49910;SDS011;35803;53.096;5.844;2023-04-03T13:54:59;2.63;;;0.90;;
49910;SDS011;35803;53.096;5.844;2023-04-03T13:57:27;1.95;;;0.90;;
49910;SDS011;35803;53.096;5.844;2023-04-03T13:59:53;2.63;;;0.93;;
49910;SDS011;35803;53.096;5.844;2023-04-03T14:02:29;1.30;;;0.98;;
49910;SDS011;35803;53.096;5.844;2023-04-03T14:04:58;1.15;;;1.05;;
49910;SDS011;35803;53.096;5.844;2023-04-03T14:07:27;0.93;;;0.90;;
49910;SDS011;35803;53.096;5.844;2023-04-03T14:09:54;1.63;;;1.00;;
49910;SDS011;35803;53.096;5.844;2023-04-03T14:12:31;1.13;;;0.90;;
49910;SDS011;35803;53.096;5.844;2023-04-03T14:15:06;1.27;;;0.90;;
49910;SDS011;35803;53.096;5.844;2023-04-03T14:17:49;1.95;;;0.90;;
49910;SDS011;35803;53.096;5.844;2023-04-03T14:20:18;1.80;;;0.93;;
49910;SDS011;35803;53.096;5.844;2023-04-03T14:22:45;0.85;;;0.85;;
49910;SDS011;35803;53.096;5.844;2023-04-03T14:25:11;0.80;;;0.80;;
49910;SDS011;35803;53.096;5.844;2023-04-03T14:27:41;1.08;;;0.85;;
49910;SDS011;35803;53.096;5.844;2023-04-03T14:30:11;2.45;;;1.50;;
49910;SDS011;35803;53.096;5.844;2023-04-03T14:32:45;2.97;;;1.15;;
49910;SDS011;35803;53.096;5.844;2023-04-03T14:35:12;1.58;;;1.10;;
49910;SDS011;35803;53.096;5.844;2023-04-03T14:37:38;2.58;;;1.00;;
49910;SDS011;35803;53.096;5.844;2023-04-03T14:40:04;1.35;;;1.02;;
49910;SDS011;35803;53.096;5.844;2023-04-03T14:42:32;3.17;;;1.23;;
49910;SDS011;35803;53.096;5.844;2023-04-03T14:45:00;2.30;;;0.98;;
49910;SDS011;35803;53.096;5.844;2023-04-03T14:47:29;1.80;;;0.90;;
49910;SDS011;35803;53.096;5.844;2023-04-03T14:49:54;1.23;;;1.02;;
49910;SDS011;35803;53.096;5.844;2023-04-03T14:52:23;2.25;;;1.00;;
49910;SDS011;35803;53.096;5.844;2023-04-03T14:54:51;2.03;;;0.90;;
49910;SDS011;35803;53.096;5.844;2023-04-03T14:57:17;1.13;;;0.90;;
49910;SDS011;35803;53.096;5.844;2023-04-03T14:59:43;1.92;;;0.85;;
49910;SDS011;35803;53.096;5.844;2023-04-03T15:04:53;3.30;;;1.20;;
49910;SDS011;35803;53.096;5.844;2023-04-03T15:07:19;0.90;;;0.80;;
49910;SDS011;35803;53.096;5.844;2023-04-03T15:09:45;1.17;;;0.90;;
49910;SDS011;35803;53.096;5.844;2023-04-03T15:12:11;0.70;;;0.70;;
49910;SDS011;35803;53.096;5.844;2023-04-03T15:14:36;1.67;;;1.05;;
49910;SDS011;35803;53.096;5.844;2023-04-03T15:17:05;0.90;;;0.75;;
49910;SDS011;35803;53.096;5.844;2023-04-03T15:19:40;1.85;;;0.70;;
49910;SDS011;35803;53.096;5.844;2023-04-03T15:22:06;4.50;;;1.13;;
49910;SDS011;35803;53.096;5.844;2023-04-03T15:24:32;1.35;;;0.70;;
49910;SDS011;35803;53.096;5.844;2023-04-03T15:26:57;1.05;;;0.82;;
49910;SDS011;35803;53.096;5.844;2023-04-03T15:29:23;1.95;;;0.80;;
49910;SDS011;35803;53.096;5.844;2023-04-03T15:31:49;2.33;;;0.90;;
49910;SDS011;35803;53.096;5.844;2023-04-03T15:34:17;1.45;;;1.10;;
49910;SDS011;35803;53.096;5.844;2023-04-03T15:36:53;1.45;;;0.88;;
49910;SDS011;35803;53.096;5.844;2023-04-03T15:39:18;1.02;;;0.90;;
49910;SDS011;35803;53.096;5.844;2023-04-03T15:41:44;2.10;;;1.13;;
49910;SDS011;35803;53.096;5.844;2023-04-03T15:44:10;1.30;;;0.80;;
49910;SDS011;35803;53.096;5.844;2023-04-03T15:46:37;2.05;;;1.00;;
49910;SDS011;35803;53.096;5.844;2023-04-03T15:49:04;2.38;;;1.20;;
49910;SDS011;35803;53.096;5.844;2023-04-03T15:51:30;1.15;;;1.00;;
49910;SDS011;35803;53.096;5.844;2023-04-03T15:53:55;3.08;;;1.13;;
49910;SDS011;35803;53.096;5.844;2023-04-03T15:56:21;2.08;;;1.10;;
49910;SDS011;35803;53.096;5.844;2023-04-03T15:58:46;1.55;;;1.15;;
49910;SDS011;35803;53.096;5.844;2023-04-03T16:01:12;2.33;;;0.98;;
49910;SDS011;35803;53.096;5.844;2023-04-03T16:03:39;3.65;;;1.08;;
49910;SDS011;35803;53.096;5.844;2023-04-03T16:06:16;2.10;;;1.10;;
49910;SDS011;35803;53.096;5.844;2023-04-03T16:08:44;1.50;;;1.35;;
49910;SDS011;35803;53.096;5.844;2023-04-03T16:11:09;1.60;;;1.00;;
49910;SDS011;35803;53.096;5.844;2023-04-03T16:13:35;3.60;;;0.82;;
49910;SDS011;35803;53.096;5.844;2023-04-03T16:16:01;2.38;;;1.00;;
49910;SDS011;35803;53.096;5.844;2023-04-03T16:18:27;1.30;;;0.77;;
49910;SDS011;35803;53.096;5.844;2023-04-03T16:20:53;1.15;;;0.82;;
49910;SDS011;35803;53.096;5.844;2023-04-03T16:23:19;1.38;;;0.80;;
49910;SDS011;35803;53.096;5.844;2023-04-03T16:25:45;0.93;;;0.90;;
49910;SDS011;35803;53.096;5.844;2023-04-03T16:28:14;1.35;;;0.80;;
49910;SDS011;35803;53.096;5.844;2023-04-03T16:30:41;1.10;;;0.95;;
49910;SDS011;35803;53.096;5.844;2023-04-03T16:33:07;3.35;;;1.10;;
49910;SDS011;35803;53.096;5.844;2023-04-03T16:35:34;1.85;;;0.93;;
49910;SDS011;35803;53.096;5.844;2023-04-03T16:37:59;0.60;;;0.60;;
49910;SDS011;35803;53.096;5.844;2023-04-03T16:40:25;0.60;;;0.60;;
49910;SDS011;35803;53.096;5.844;2023-04-03T16:42:50;3.08;;;0.80;;
49910;SDS011;35803;53.096;5.844;2023-04-03T16:45:16;1.42;;;0.60;;
49910;SDS011;35803;53.096;5.844;2023-04-03T16:47:42;0.68;;;0.68;;
49910;SDS011;35803;53.096;5.844;2023-04-03T16:50:07;0.60;;;0.60;;
49910;SDS011;35803;53.096;5.844;2023-04-03T16:52:33;1.38;;;0.73;;
49910;SDS011;35803;53.096;5.844;2023-04-03T16:54:59;1.63;;;0.60;;
49910;SDS011;35803;53.096;5.844;2023-04-03T16:57:24;2.65;;;0.70;;
49910;SDS011;35803;53.096;5.844;2023-04-03T16:59:50;0.90;;;0.60;;